createdAt,value
2019-02-09T00:03:17.976Z,8.93
2019-02-09T00:07:17.091Z,8.27
2019-02-09T00:11:16.289Z,8.27
2019-02-09T00:15:15.413Z,9.20
2019-02-09T00:19:14.566Z,8.57
2019-02-09T00:23:13.704Z,7.70
2019-02-09T00:27:12.827Z,9.08
2019-02-09T00:31:11.957Z,10.47
2019-02-09T00:35:16.261Z,9.70
2019-02-09T00:39:15.386Z,10.05
2019-02-09T00:43:14.674Z,9.53
2019-02-09T00:47:13.796Z,10.40
2019-02-09T00:51:12.985Z,9.70
2019-02-09T00:55:23.634Z,7.53
2019-02-09T00:59:22.759Z,10.40
2019-02-09T01:03:21.895Z,9.23
2019-02-09T01:07:21.026Z,9.33
2019-02-09T01:11:20.205Z,10.30
2019-02-09T01:15:19.404Z,9.47
2019-02-09T01:19:18.605Z,10.10
2019-02-09T01:23:17.718Z,10.90
2019-02-09T01:27:16.853Z,10.28
2019-02-09T01:31:15.983Z,10.67
2019-02-09T01:35:15.699Z,10.43
2019-02-09T01:39:14.814Z,11.83
2019-02-09T01:43:13.950Z,12.20
2019-02-09T01:47:13.161Z,12.00
2019-02-09T01:51:12.293Z,9.73
2019-02-09T01:55:12.502Z,10.57
2019-02-09T01:59:11.613Z,9.37
2019-02-09T02:03:10.746Z,8.88
2019-02-09T02:07:09.942Z,16.50
2019-02-09T02:11:09.078Z,11.43
2019-02-09T02:15:11.513Z,10.50
2019-02-09T02:19:10.633Z,10.55
2019-02-09T02:23:09.765Z,18.17
2019-02-09T02:27:08.903Z,10.53
2019-02-09T02:31:09.115Z,14.97
2019-02-09T02:35:09.974Z,21.87
2019-02-09T02:39:09.664Z,13.63
2019-02-09T02:43:08.794Z,18.03
2019-02-09T02:47:07.929Z,10.97
2019-02-09T02:51:07.077Z,10.75
2019-02-09T02:55:09.768Z,12.10
2019-02-09T02:59:09.093Z,10.48
2019-02-09T03:03:08.335Z,9.73
2019-02-09T03:07:07.587Z,10.83
2019-02-09T03:11:06.711Z,10.25
2019-02-09T03:19:23.701Z,10.08
2019-02-09T03:23:22.841Z,12.00
2019-02-09T03:27:21.985Z,9.33
2019-02-09T03:31:21.158Z,11.87
2019-02-09T03:35:20.448Z,9.50
2019-02-09T03:39:19.670Z,9.97
2019-02-09T03:43:18.891Z,10.10
2019-02-09T03:47:19.009Z,11.00
2019-02-09T03:51:18.123Z,7.43
2019-02-09T03:55:17.249Z,10.73
2019-02-09T03:59:16.373Z,9.37
2019-02-09T04:03:15.534Z,10.33
2019-02-09T04:07:14.652Z,15.75
2019-02-09T04:11:13.773Z,12.43
2019-02-09T04:15:15.259Z,10.25
2019-02-09T04:19:14.402Z,15.37
2019-02-09T04:23:13.533Z,9.33
2019-02-09T04:27:12.670Z,11.57
2019-02-09T04:31:11.985Z,15.13
2019-02-09T04:35:11.119Z,14.27
2019-02-09T04:39:10.272Z,11.03
2019-02-09T04:43:09.399Z,8.90
2019-02-09T04:47:08.532Z,10.37
2019-02-09T04:51:07.648Z,9.28
2019-02-09T04:55:10.045Z,16.00
2019-02-09T04:59:09.172Z,8.90
2019-02-09T05:03:08.344Z,8.70
2019-02-09T05:07:07.464Z,8.93
2019-02-09T05:11:06.598Z,9.23
2019-02-09T05:15:14.541Z,13.98
2019-02-09T05:19:13.669Z,15.70
2019-02-09T05:23:12.810Z,9.03
2019-02-09T05:27:11.935Z,19.67
2019-02-09T05:31:11.078Z,17.00
2019-02-09T05:35:10.281Z,18.83
2019-02-09T05:39:09.411Z,15.93
2019-02-09T05:43:08.548Z,8.60
2019-02-09T05:47:07.670Z,7.60
2019-02-09T05:51:06.807Z,6.40
2019-02-09T05:55:07.661Z,3.60
2019-02-09T05:59:07.501Z,4.28
2019-02-09T06:03:06.713Z,8.30
2019-02-09T06:07:05.831Z,4.67
2019-02-09T06:11:04.946Z,5.13
2019-02-09T06:15:06.720Z,4.70
2019-02-09T06:19:05.836Z,4.33
2019-02-09T06:23:04.954Z,4.27
2019-02-09T06:27:04.052Z,3.20
2019-02-09T06:31:03.178Z,2.50
2019-02-09T06:35:02.310Z,3.50
2019-02-09T06:39:01.919Z,3.07
2019-02-09T06:43:03.708Z,2.40
2019-02-09T06:47:03.014Z,2.60
2019-02-09T06:51:02.240Z,2.43
2019-02-09T06:55:02.031Z,2.27
2019-02-09T06:59:02.012Z,2.70
2019-02-09T07:03:01.121Z,2.63
2019-02-09T07:07:02.159Z,2.53
2019-02-09T07:11:02.245Z,2.17
2019-02-09T07:15:01.965Z,2.40
2019-02-09T07:19:02.099Z,2.70
2019-02-09T07:23:01.290Z,2.50
2019-02-09T07:27:02.252Z,2.30
2019-02-09T07:31:01.762Z,2.70
2019-02-09T07:35:02.158Z,2.53
2019-02-09T07:39:02.308Z,2.40
2019-02-09T07:43:02.896Z,2.37
2019-02-09T07:47:02.181Z,2.30
2019-02-09T07:51:01.973Z,1.80
2019-02-09T07:55:02.079Z,2.00
2019-02-09T07:59:01.860Z,2.20
2019-02-09T08:03:00.975Z,2.07
2019-02-09T08:07:02.498Z,1.80
2019-02-09T08:11:09.029Z,1.87
2019-02-09T08:15:05.155Z,2.03
2019-02-09T08:19:04.261Z,1.80
2019-02-09T08:23:10.639Z,1.97
2019-02-09T08:27:09.790Z,2.00
2019-02-09T08:31:08.936Z,1.77
2019-02-09T08:35:08.513Z,1.90
2019-02-09T08:39:07.802Z,1.70
2019-02-09T08:43:06.922Z,1.87
2019-02-09T08:47:06.030Z,1.80
2019-02-09T08:51:07.926Z,1.75
2019-02-09T08:55:07.218Z,1.70
2019-02-09T08:59:06.414Z,1.90
2019-02-09T09:03:05.534Z,1.50
2019-02-09T09:07:08.158Z,1.67
2019-02-09T09:11:07.298Z,1.80
2019-02-09T09:15:12.158Z,1.87
2019-02-09T09:19:11.415Z,1.73
2019-02-09T09:23:10.551Z,1.87
2019-02-09T09:27:09.668Z,1.98
2019-02-09T09:31:08.785Z,2.07
2019-02-09T09:35:10.345Z,1.73
2019-02-09T09:39:09.548Z,1.60
2019-02-09T09:43:08.686Z,1.80
2019-02-09T09:47:07.832Z,1.50
2019-02-09T09:51:07.020Z,1.60
2019-02-09T09:55:08.672Z,1.70
2019-02-09T09:59:07.811Z,2.10
2019-02-09T10:03:06.949Z,2.70
2019-02-09T10:07:06.135Z,2.10
2019-02-09T10:11:05.261Z,1.90
2019-02-09T10:15:07.638Z,2.03
2019-02-09T10:19:06.757Z,2.80
2019-02-09T10:23:05.876Z,2.83
2019-02-09T10:27:06.089Z,3.83
2019-02-09T10:31:05.200Z,2.67
2019-02-09T10:35:06.031Z,2.47
2019-02-09T10:39:07.662Z,2.50
2019-02-09T10:43:07.729Z,2.20
2019-02-09T10:47:06.870Z,2.03
2019-02-09T10:51:05.970Z,2.17
2019-02-09T10:55:07.540Z,2.00
2019-02-09T10:59:06.652Z,2.00
2019-02-09T11:03:06.408Z,2.30
2019-02-09T11:07:05.530Z,1.80
2019-02-09T11:11:04.813Z,1.97
2019-02-09T11:15:06.838Z,2.00
2019-02-09T11:19:05.941Z,1.80
2019-02-09T11:23:05.334Z,1.37
2019-02-09T11:27:04.454Z,1.60
2019-02-09T11:31:03.666Z,1.50
2019-02-09T11:35:02.770Z,1.40
2019-02-09T11:39:01.913Z,1.63
2019-02-09T11:43:03.095Z,1.80
2019-02-09T11:47:02.220Z,1.50
2019-02-09T11:51:01.378Z,1.30
2019-02-09T11:55:00.980Z,1.20
2019-02-09T11:59:01.395Z,1.20
2019-02-09T12:03:05.587Z,1.00
2019-02-09T12:07:02.330Z,1.23
2019-02-09T12:11:01.455Z,1.20
2019-02-09T12:15:01.515Z,1.00
2019-02-09T12:19:01.063Z,1.10
2019-02-09T12:23:01.082Z,1.00
2019-02-09T12:27:01.388Z,1.10
2019-02-09T12:31:01.223Z,0.93
2019-02-09T12:35:01.045Z,1.10
2019-02-09T12:39:01.581Z,1.00
2019-02-09T12:43:01.670Z,1.40
2019-02-09T12:47:01.437Z,1.20
2019-02-09T12:51:01.535Z,1.37
2019-02-09T12:55:01.080Z,1.00
2019-02-09T12:59:01.500Z,0.80
2019-02-09T13:03:03.270Z,1.17
2019-02-09T13:07:02.404Z,1.23
2019-02-09T13:11:02.510Z,1.27
2019-02-09T13:15:01.605Z,1.30
2019-02-09T13:19:01.130Z,1.30
2019-02-09T13:23:01.587Z,1.10
2019-02-09T13:27:01.199Z,1.33
2019-02-09T13:31:01.064Z,1.17
2019-02-09T13:35:01.129Z,1.10
2019-02-09T13:39:01.576Z,1.20
2019-02-09T13:43:01.674Z,1.23
2019-02-09T13:47:01.126Z,0.93
2019-02-09T13:51:01.461Z,1.20
2019-02-09T13:55:01.566Z,1.00
2019-02-09T13:59:01.111Z,0.93
2019-02-09T14:03:01.392Z,1.20
2019-02-09T14:07:01.473Z,1.80
2019-02-09T14:11:01.509Z,1.20
2019-02-09T14:15:01.233Z,1.23
2019-02-09T14:19:01.474Z,1.37
2019-02-09T14:23:01.172Z,1.47
2019-02-09T14:27:01.513Z,1.33
2019-02-09T14:31:01.061Z,0.90
2019-02-09T14:35:01.370Z,1.07
2019-02-09T14:39:01.232Z,1.37
2019-02-09T14:43:02.547Z,2.60
2019-02-09T14:47:01.646Z,0.97
2019-02-09T14:51:01.482Z,1.15
2019-02-09T14:55:01.108Z,0.97
2019-02-09T14:59:01.307Z,1.37
2019-02-09T15:03:01.362Z,5.40
2019-02-09T15:07:01.173Z,1.57
2019-02-09T15:11:01.285Z,1.13
2019-02-09T15:15:01.325Z,1.40
2019-02-09T15:19:01.388Z,1.37
2019-02-09T15:23:01.410Z,1.03
2019-02-09T15:27:01.213Z,1.42
2019-02-09T15:31:01.302Z,1.43
2019-02-09T15:35:01.401Z,1.47
2019-02-09T15:39:01.619Z,1.22
2019-02-09T15:43:02.347Z,1.60
2019-02-09T15:47:01.465Z,1.20
2019-02-09T15:51:01.389Z,1.50
2019-02-09T15:55:01.220Z,1.43
2019-02-09T15:59:01.442Z,1.60
2019-02-09T16:03:01.683Z,1.60
2019-02-09T16:07:01.396Z,1.50
2019-02-09T16:11:01.311Z,1.23
2019-02-09T16:15:01.329Z,1.60
2019-02-09T16:19:01.618Z,1.20
2019-02-09T16:23:01.422Z,2.13
2019-02-09T16:27:01.243Z,1.40
2019-02-09T16:31:01.310Z,1.40
2019-02-09T16:35:01.283Z,1.30
2019-02-09T16:39:01.404Z,1.80
2019-02-09T16:43:02.129Z,1.80
2019-02-09T16:47:01.468Z,1.00
2019-02-09T16:51:01.558Z,1.50
2019-02-09T16:55:01.125Z,1.13
2019-02-09T16:59:01.403Z,1.10
2019-02-09T17:03:01.468Z,0.87
2019-02-09T17:07:01.626Z,1.10
2019-02-09T17:11:01.552Z,0.97
2019-02-09T17:15:01.284Z,0.90
2019-02-09T17:19:01.499Z,1.50
2019-02-09T17:23:01.233Z,1.10
2019-02-09T17:27:01.447Z,1.70
2019-02-09T17:31:01.269Z,2.30
2019-02-09T17:35:01.437Z,1.40
2019-02-09T17:39:01.485Z,1.30
2019-02-09T17:43:01.677Z,1.33
2019-02-09T17:47:01.330Z,1.40
2019-02-09T17:51:01.372Z,1.80
2019-02-09T17:55:01.440Z,1.83
2019-02-09T17:59:01.265Z,1.50
2019-02-09T18:03:01.360Z,1.67
2019-02-09T18:07:01.212Z,2.20
2019-02-09T18:11:01.448Z,1.72
2019-02-09T18:15:01.337Z,1.30
2019-02-09T18:19:01.412Z,1.10
2019-02-09T18:23:01.222Z,1.70
2019-02-09T18:27:01.392Z,1.80
2019-02-09T18:31:01.385Z,1.27
2019-02-09T18:35:01.423Z,1.40
2019-02-09T18:39:01.337Z,1.82
2019-02-09T18:43:01.465Z,1.27
2019-02-09T18:47:01.355Z,1.47
2019-02-09T18:51:01.568Z,1.10
2019-02-09T18:55:01.258Z,1.23
2019-02-09T18:59:01.289Z,0.80
2019-02-09T19:03:01.494Z,1.30
2019-02-09T19:07:01.338Z,0.93
2019-02-09T19:11:01.256Z,1.37
2019-02-09T19:15:01.391Z,1.53
2019-02-09T19:19:01.309Z,0.80
2019-02-09T19:23:01.422Z,0.90
2019-02-09T19:27:01.473Z,0.80
2019-02-09T19:31:01.465Z,1.00
2019-02-09T19:35:01.324Z,0.70
2019-02-09T19:39:01.485Z,1.00
2019-02-09T19:43:01.600Z,0.80
2019-02-09T19:47:01.317Z,1.10
2019-02-09T19:51:01.357Z,0.70
2019-02-09T19:55:01.383Z,1.10
2019-02-09T19:59:01.462Z,1.00
2019-02-09T20:03:01.506Z,1.17
2019-02-09T20:07:01.429Z,0.87
2019-02-09T20:11:01.461Z,1.50
2019-02-09T20:15:01.493Z,1.30
2019-02-09T20:19:01.581Z,1.80
2019-02-09T20:23:01.318Z,1.40
2019-02-09T20:27:01.370Z,1.27
2019-02-09T20:31:01.493Z,1.80
2019-02-09T20:35:01.360Z,1.43
2019-02-09T20:39:04.682Z,2.73
2019-02-09T20:43:04.494Z,1.60
2019-02-09T20:47:04.700Z,1.10
2019-02-09T20:51:03.803Z,0.93
2019-02-09T20:55:02.917Z,1.17
2019-02-09T20:59:02.042Z,1.40
2019-02-09T21:03:01.556Z,1.10
2019-02-09T21:07:01.370Z,1.40
2019-02-09T21:11:01.455Z,1.00
2019-02-09T21:15:01.506Z,1.40
2019-02-09T21:19:01.596Z,1.30
2019-02-09T21:23:01.457Z,1.67
2019-02-09T21:27:01.489Z,1.00
2019-02-09T21:31:01.434Z,0.90
2019-02-09T21:35:01.466Z,1.10
2019-02-09T21:39:01.506Z,1.20
2019-02-09T21:43:01.605Z,1.10
2019-02-09T21:47:01.422Z,0.93
2019-02-09T21:51:01.465Z,1.10
2019-02-09T21:55:01.532Z,1.42
2019-02-09T21:59:01.530Z,1.47
2019-02-09T22:03:01.549Z,1.33
2019-02-09T22:07:01.474Z,1.63
2019-02-09T22:11:01.518Z,1.23
2019-02-09T22:15:01.570Z,2.90
2019-02-09T22:19:01.579Z,2.20
2019-02-09T22:23:01.752Z,3.23
2019-02-09T22:27:01.707Z,2.22
2019-02-09T22:31:01.488Z,2.27
2019-02-09T22:35:01.462Z,2.00
2019-02-09T22:39:01.536Z,1.63
2019-02-09T22:43:01.498Z,1.97
2019-02-09T22:47:01.557Z,2.08
2019-02-09T22:51:01.652Z,2.35
2019-02-09T22:55:01.462Z,1.47
2019-02-09T22:59:01.509Z,1.80
2019-02-09T23:03:01.541Z,2.30
2019-02-09T23:07:02.886Z,1.77
2019-02-09T23:11:02.985Z,2.40
2019-02-09T23:15:02.102Z,2.27
2019-02-09T23:19:01.480Z,2.40
2019-02-09T23:23:01.518Z,1.60
2019-02-09T23:27:01.541Z,2.20
2019-02-09T23:31:01.521Z,3.30
2019-02-09T23:35:01.470Z,2.42
2019-02-09T23:39:01.595Z,2.45
2019-02-09T23:43:02.658Z,2.67
2019-02-09T23:47:01.764Z,2.17
2019-02-09T23:51:01.597Z,2.02
2019-02-09T23:55:01.514Z,2.00
2019-02-09T23:59:01.562Z,2.30
